createdAt,value
2023-04-24T00:00:07.601Z,0
2023-04-24T00:03:08.221Z,0
2023-04-24T00:06:07.529Z,0
2023-04-24T00:09:07.491Z,0
2023-04-24T00:12:07.508Z,0
2023-04-24T00:15:07.535Z,0
2023-04-24T00:18:07.863Z,0
2023-04-24T00:21:07.572Z,0
2023-04-24T00:24:07.546Z,0
2023-04-24T00:27:07.510Z,0
2023-04-24T00:30:07.596Z,0
2023-04-24T00:33:07.800Z,0
2023-04-24T00:36:07.596Z,0
2023-04-24T00:39:07.633Z,0
2023-04-24T00:42:07.562Z,0
2023-04-24T00:45:07.622Z,0
2023-04-24T00:48:07.876Z,0
2023-04-24T00:51:07.640Z,0
2023-04-24T00:54:07.528Z,0
2023-04-24T00:57:07.499Z,0
2023-04-24T01:00:07.580Z,0
2023-04-24T01:03:08.574Z,0
2023-04-24T01:06:07.493Z,0
2023-04-24T01:09:07.591Z,0
2023-04-24T01:12:07.517Z,0
2023-04-24T01:15:07.583Z,0
2023-04-24T01:18:07.710Z,0
2023-04-24T01:21:07.566Z,0
2023-04-24T01:24:07.506Z,0
2023-04-24T01:27:07.564Z,0
2023-04-24T01:30:07.641Z,0
2023-04-24T01:33:07.678Z,0
2023-04-24T01:36:07.630Z,0
2023-04-24T01:39:07.556Z,0
2023-04-24T01:42:07.567Z,0
2023-04-24T01:45:07.538Z,0
2023-04-24T01:48:07.777Z,0
2023-04-24T01:51:07.669Z,0
2023-04-24T01:54:07.539Z,0
2023-04-24T01:57:07.575Z,0
2023-04-24T02:00:07.561Z,0
2023-04-24T02:03:08.106Z,0
2023-04-24T02:06:07.579Z,0
2023-04-24T02:09:07.644Z,0
2023-04-24T02:12:07.616Z,0
2023-04-24T02:15:07.660Z,0
2023-04-24T02:18:07.808Z,0
2023-04-24T02:21:07.553Z,0
2023-04-24T02:24:07.615Z,0
2023-04-24T02:27:07.594Z,0
2023-04-24T02:30:07.598Z,0
2023-04-24T02:33:07.539Z,0
2023-04-24T02:36:07.614Z,0
2023-04-24T02:39:07.603Z,0
2023-04-24T02:42:07.544Z,0
2023-04-24T02:45:07.529Z,0
2023-04-24T02:48:07.782Z,0
2023-04-24T02:51:07.589Z,0
2023-04-24T02:54:07.527Z,0
2023-04-24T02:57:07.477Z,0
2023-04-24T03:00:07.610Z,0
2023-04-24T03:03:08.611Z,0
2023-04-24T03:06:07.525Z,0
2023-04-24T03:09:07.585Z,0
2023-04-24T03:12:07.477Z,0
2023-04-24T03:15:07.723Z,0
2023-04-24T03:18:07.748Z,0
2023-04-24T03:21:07.621Z,0
2023-04-24T03:24:07.513Z,0
2023-04-24T03:27:07.455Z,0
2023-04-24T03:30:07.650Z,3
2023-04-24T03:33:07.696Z,3
2023-04-24T03:36:07.521Z,3
2023-04-24T03:39:07.452Z,7
2023-04-24T03:42:07.540Z,13
2023-04-24T03:45:07.520Z,20
2023-04-24T03:48:07.940Z,30
2023-04-24T03:51:07.524Z,47
2023-04-24T03:54:07.524Z,70
2023-04-24T03:57:07.453Z,97
2023-04-24T04:00:07.662Z,133
2023-04-24T04:03:08.810Z,177
2023-04-24T04:06:07.571Z,223
2023-04-24T04:09:07.588Z,287
2023-04-24T04:12:07.575Z,357
2023-04-24T04:15:07.602Z,427
2023-04-24T04:18:07.759Z,513
2023-04-24T04:21:07.562Z,630
2023-04-24T04:24:07.615Z,753
2023-04-24T04:27:07.578Z,857
2023-04-24T04:30:07.831Z,937
2023-04-24T04:33:07.720Z,1010
2023-04-24T04:36:10.073Z,1130
2023-04-24T04:39:07.596Z,1267
2023-04-24T04:42:07.656Z,1380
2023-04-24T04:45:08.147Z,1410
2023-04-24T04:48:07.744Z,1527
2023-04-24T04:51:07.623Z,1757
2023-04-24T04:54:07.672Z,2133
2023-04-24T04:57:10.824Z,2267
2023-04-24T05:00:07.707Z,2347
2023-04-24T05:03:28.435Z,2490
2023-04-24T05:06:07.616Z,2717
2023-04-24T05:09:07.670Z,2773
2023-04-24T05:12:07.550Z,2947
2023-04-24T05:15:07.680Z,3353
2023-04-24T05:18:07.815Z,3563
2023-04-24T05:21:07.590Z,3610
2023-04-24T05:24:07.584Z,3727
2023-04-24T05:27:07.910Z,3840
2023-04-24T05:30:08.160Z,3757
2023-04-24T05:33:09.415Z,3663
2023-04-24T05:36:07.661Z,3773
2023-04-24T05:39:09.801Z,3940
2023-04-24T05:42:07.690Z,4630
2023-04-24T05:45:07.667Z,5553
2023-04-24T05:48:07.838Z,5213
2023-04-24T05:51:07.631Z,5733
2023-04-24T05:54:07.630Z,6290
2023-04-24T05:57:07.615Z,6653
2023-04-24T06:00:07.668Z,9463
2023-04-24T06:03:09.092Z,9717
2023-04-24T06:06:07.554Z,7937
2023-04-24T06:09:07.576Z,12590
2023-04-24T06:12:07.665Z,11333
2023-04-24T06:15:07.594Z,8423
2023-04-24T06:18:07.972Z,9320
2023-04-24T06:21:07.677Z,5727
2023-04-24T06:24:07.648Z,5660
2023-04-24T06:27:07.673Z,4013
2023-04-24T06:30:07.710Z,3553
2023-04-24T06:33:28.482Z,5297
2023-04-24T06:36:08.449Z,4053
2023-04-24T06:39:07.860Z,3597
2023-04-24T06:42:07.627Z,5263
2023-04-24T06:45:07.704Z,7753
2023-04-24T06:48:08.044Z,8170
2023-04-24T06:51:07.671Z,10063
2023-04-24T06:54:07.653Z,7090
2023-04-24T06:57:07.681Z,5970
2023-04-24T07:00:08.246Z,7447
2023-04-24T07:03:08.526Z,6683
2023-04-24T07:06:07.690Z,13280
2023-04-24T07:09:07.854Z,20793
2023-04-24T07:12:07.704Z,14243
2023-04-24T07:15:07.562Z,13117
2023-04-24T07:18:11.545Z,12587
2023-04-24T07:21:07.662Z,10310
2023-04-24T07:24:07.652Z,9217
2023-04-24T07:27:07.573Z,14907
2023-04-24T07:30:07.654Z,19007
2023-04-24T07:33:07.858Z,6850
2023-04-24T07:36:07.735Z,8497
2023-04-24T07:39:07.621Z,16347
2023-04-24T07:42:07.730Z,17103
2023-04-24T07:45:07.622Z,18373
2023-04-24T07:48:08.061Z,14713
2023-04-24T07:51:07.604Z,18207
2023-04-24T07:54:07.781Z,16957
2023-04-24T07:57:07.660Z,15773
2023-04-24T08:00:07.680Z,19107
2023-04-24T08:03:08.397Z,27030
2023-04-24T08:06:08.409Z,21670
2023-04-24T08:09:07.759Z,20473
2023-04-24T08:12:07.937Z,21000
2023-04-24T08:15:07.672Z,25743
2023-04-24T08:18:07.824Z,39470
2023-04-24T08:21:07.636Z,40913
2023-04-24T08:24:07.612Z,42853
2023-04-24T08:27:07.694Z,44177
2023-04-24T08:30:07.614Z,45843
2023-04-24T08:33:08.140Z,47863
2023-04-24T08:36:07.695Z,52393
2023-04-24T08:39:07.651Z,53743
2023-04-24T08:42:07.596Z,53147
2023-04-24T08:45:07.620Z,53493
2023-04-24T08:48:16.747Z,58227
2023-04-24T08:51:07.699Z,29690
2023-04-24T08:54:07.674Z,10173
2023-04-24T08:57:08.159Z,62163
2023-04-24T09:00:08.968Z,67563
2023-04-24T09:03:08.242Z,68220
2023-04-24T09:06:07.607Z,69543
2023-04-24T09:09:07.570Z,20147
2023-04-24T09:12:07.604Z,33203
2023-04-24T09:15:07.599Z,66803
2023-04-24T09:18:07.996Z,70423
2023-04-24T09:21:07.690Z,17867
2023-04-24T09:24:07.633Z,13177
2023-04-24T09:27:08.484Z,13523
2023-04-24T09:30:07.657Z,15147
2023-04-24T09:33:07.822Z,17640
2023-04-24T09:36:07.612Z,9417
2023-04-24T09:39:07.578Z,6427
2023-04-24T09:42:07.697Z,6533
2023-04-24T09:45:21.658Z,7650
2023-04-24T09:48:07.936Z,11853
2023-04-24T09:51:07.672Z,12763
2023-04-24T09:54:07.607Z,9530
2023-04-24T09:57:07.817Z,20227
2023-04-24T10:00:07.705Z,24650
2023-04-24T10:03:08.446Z,16490
2023-04-24T10:06:07.650Z,17313
2023-04-24T10:09:07.646Z,21630
2023-04-24T10:12:07.637Z,17347
2023-04-24T10:15:07.619Z,19973
2023-04-24T10:18:07.977Z,11740
2023-04-24T10:21:07.585Z,18560
2023-04-24T10:24:07.823Z,18973
2023-04-24T10:27:07.716Z,78303
2023-04-24T10:30:07.682Z,23533
2023-04-24T10:33:07.885Z,21810
2023-04-24T10:36:07.758Z,21083
2023-04-24T10:39:07.588Z,23697
2023-04-24T10:42:07.782Z,14290
2023-04-24T10:45:07.559Z,10973
2023-04-24T10:48:11.049Z,11803
2023-04-24T10:51:07.582Z,13890
2023-04-24T10:54:07.621Z,15927
2023-04-24T10:57:07.608Z,17560
2023-04-24T11:00:10.464Z,23123
2023-04-24T11:03:08.292Z,89057
2023-04-24T11:06:07.640Z,82977
2023-04-24T11:09:07.689Z,83153
2023-04-24T11:12:07.666Z,77867
2023-04-24T11:15:08.995Z,73600
2023-04-24T11:18:07.878Z,24060
2023-04-24T11:21:08.101Z,26420
2023-04-24T11:24:07.620Z,26117
2023-04-24T11:27:07.745Z,23430
2023-04-24T11:30:09.347Z,22740
2023-04-24T11:33:07.972Z,22660
2023-04-24T11:36:07.633Z,70060
2023-04-24T11:39:07.715Z,24397
2023-04-24T11:42:07.699Z,27737
2023-04-24T11:45:09.478Z,13667
2023-04-24T11:48:07.954Z,10253
2023-04-24T11:51:07.641Z,17453
2023-04-24T11:54:11.445Z,32290
2023-04-24T11:57:07.974Z,34877
2023-04-24T12:00:10.292Z,82387
2023-04-24T12:03:08.622Z,80383
2023-04-24T12:06:07.921Z,19050
2023-04-24T12:09:24.274Z,18913
2023-04-24T12:12:07.698Z,24923
2023-04-24T12:15:08.536Z,37067
2023-04-24T12:18:07.846Z,21843
2023-04-24T12:21:08.140Z,88407
2023-04-24T12:24:07.662Z,61763
2023-04-24T12:27:07.728Z,55567
2023-04-24T12:30:07.655Z,74683
2023-04-24T12:33:07.949Z,12843
2023-04-24T12:36:07.712Z,14483
2023-04-24T12:39:07.672Z,19567
2023-04-24T12:42:07.660Z,9777
2023-04-24T12:45:07.694Z,14540
2023-04-24T12:48:07.842Z,12160
2023-04-24T12:51:07.698Z,15163
2023-04-24T12:54:07.611Z,18830
2023-04-24T12:57:07.674Z,31650
2023-04-24T13:00:07.985Z,20790
2023-04-24T13:03:09.145Z,19847
2023-04-24T13:06:07.701Z,21020
2023-04-24T13:09:07.644Z,22920
2023-04-24T13:12:07.622Z,13510
2023-04-24T13:15:07.630Z,14863
2023-04-24T13:18:07.950Z,34447
2023-04-24T13:21:07.647Z,79177
2023-04-24T13:24:07.552Z,11850
2023-04-24T13:27:07.676Z,12240
2023-04-24T13:30:07.804Z,10403
2023-04-24T13:33:07.864Z,6557
2023-04-24T13:36:07.702Z,6767
2023-04-24T13:39:07.652Z,7880
2023-04-24T13:42:11.631Z,20307
2023-04-24T13:45:29.538Z,23850
2023-04-24T13:48:07.948Z,25577
2023-04-24T13:51:07.587Z,10427
2023-04-24T13:54:07.680Z,9370
2023-04-24T13:57:07.676Z,14967
2023-04-24T14:00:07.777Z,18437
2023-04-24T14:03:08.407Z,16797
2023-04-24T14:06:07.652Z,8333
2023-04-24T14:09:07.724Z,5600
2023-04-24T14:12:07.651Z,4793
2023-04-24T14:15:07.684Z,4747
2023-04-24T14:18:10.679Z,4930
2023-04-24T14:21:07.636Z,5347
2023-04-24T14:24:07.696Z,5533
2023-04-24T14:27:07.708Z,4113
2023-04-24T14:30:08.061Z,8440
2023-04-24T14:33:07.854Z,6727
2023-04-24T14:36:07.593Z,9150
2023-04-24T14:39:07.768Z,8723
2023-04-24T14:42:07.775Z,8653
2023-04-24T14:45:07.689Z,8550
2023-04-24T14:48:07.914Z,8363
2023-04-24T14:51:07.556Z,8443
2023-04-24T14:54:07.784Z,8963
2023-04-24T14:57:07.744Z,9450
2023-04-24T15:00:08.065Z,14293
2023-04-24T15:03:09.060Z,13623
2023-04-24T15:06:07.534Z,11683
2023-04-24T15:09:07.664Z,15140
2023-04-24T15:12:07.731Z,17440
2023-04-24T15:15:07.630Z,19583
2023-04-24T15:18:07.877Z,12100
2023-04-24T15:21:07.639Z,9927
2023-04-24T15:24:07.647Z,8030
2023-04-24T15:27:07.760Z,6860
2023-04-24T15:30:07.624Z,6357
2023-04-24T15:33:07.954Z,9597
2023-04-24T15:36:07.813Z,8730
2023-04-24T15:39:13.973Z,8027
2023-04-24T15:42:07.819Z,7017
2023-04-24T15:45:07.659Z,6837
2023-04-24T15:48:08.032Z,8780
2023-04-24T15:51:07.729Z,8407
2023-04-24T15:54:07.842Z,5850
2023-04-24T15:57:07.545Z,3417
2023-04-24T16:00:07.847Z,4460
2023-04-24T16:03:12.131Z,4150
2023-04-24T16:06:07.930Z,5183
2023-04-24T16:09:10.450Z,4860
2023-04-24T16:12:07.698Z,4767
2023-04-24T16:15:07.717Z,4083
2023-04-24T16:18:07.814Z,5330
2023-04-24T16:21:07.642Z,5633
2023-04-24T16:24:07.615Z,5873
2023-04-24T16:27:07.573Z,5660
2023-04-24T16:30:07.729Z,10493
2023-04-24T16:33:07.981Z,6693
2023-04-24T16:36:10.200Z,6560
2023-04-24T16:39:07.877Z,5867
2023-04-24T16:42:07.790Z,7590
2023-04-24T16:45:07.702Z,6353
2023-04-24T16:48:07.961Z,4863
2023-04-24T16:51:07.794Z,4787
2023-04-24T16:54:07.649Z,4503
2023-04-24T16:57:08.134Z,4977
2023-04-24T17:00:07.752Z,4033
2023-04-24T17:03:09.328Z,2403
2023-04-24T17:06:07.746Z,1410
2023-04-24T17:09:07.687Z,2483
2023-04-24T17:12:07.599Z,2070
2023-04-24T17:15:07.651Z,1560
2023-04-24T17:18:08.015Z,2300
2023-04-24T17:21:07.677Z,2127
2023-04-24T17:24:07.658Z,1717
2023-04-24T17:27:21.587Z,1997
2023-04-24T17:30:07.754Z,2043
2023-04-24T17:33:07.905Z,2213
2023-04-24T17:36:07.557Z,1567
2023-04-24T17:39:07.697Z,1243
2023-04-24T17:42:07.578Z,1513
2023-04-24T17:45:07.719Z,1600
2023-04-24T17:48:07.954Z,1643
2023-04-24T17:51:07.626Z,903
2023-04-24T17:54:07.640Z,653
2023-04-24T17:57:07.640Z,763
2023-04-24T18:00:07.613Z,613
2023-04-24T18:03:08.854Z,577
2023-04-24T18:06:07.732Z,410
2023-04-24T18:09:07.673Z,437
2023-04-24T18:12:07.657Z,240
2023-04-24T18:15:21.587Z,187
2023-04-24T18:18:07.815Z,393
2023-04-24T18:21:07.702Z,507
2023-04-24T18:24:07.622Z,360
2023-04-24T18:27:07.619Z,317
2023-04-24T18:30:07.687Z,257
2023-04-24T18:33:07.844Z,187
2023-04-24T18:36:07.555Z,167
2023-04-24T18:39:07.573Z,97
2023-04-24T18:42:07.518Z,43
2023-04-24T18:45:07.633Z,23
2023-04-24T18:48:08.039Z,20
2023-04-24T18:51:07.548Z,10
2023-04-24T18:54:07.559Z,3
2023-04-24T18:57:07.543Z,3
2023-04-24T19:00:07.658Z,0
2023-04-24T19:03:08.455Z,0
2023-04-24T19:06:07.625Z,0
2023-04-24T19:09:07.547Z,0
2023-04-24T19:12:07.613Z,0
2023-04-24T19:15:07.691Z,0
2023-04-24T19:18:07.872Z,0
2023-04-24T19:21:07.612Z,0
2023-04-24T19:24:07.578Z,0
2023-04-24T19:27:07.570Z,0
2023-04-24T19:30:07.585Z,0
2023-04-24T19:33:07.970Z,0
2023-04-24T19:36:07.623Z,0
2023-04-24T19:39:07.555Z,0
2023-04-24T19:42:10.096Z,0
2023-04-24T19:45:07.601Z,0
2023-04-24T19:48:07.800Z,0
2023-04-24T19:51:07.544Z,0
2023-04-24T19:54:07.565Z,0
2023-04-24T19:57:07.619Z,0
2023-04-24T20:00:07.651Z,0
2023-04-24T20:03:10.409Z,0
2023-04-24T20:06:07.509Z,0
2023-04-24T20:09:07.539Z,0
2023-04-24T20:12:07.612Z,0
2023-04-24T20:15:07.551Z,0
2023-04-24T20:18:07.642Z,0
2023-04-24T20:21:07.592Z,0
2023-04-24T20:24:07.540Z,0
2023-04-24T20:27:07.498Z,0
2023-04-24T20:30:07.605Z,0
2023-04-24T20:33:07.863Z,0
2023-04-24T20:36:07.578Z,0
2023-04-24T20:39:07.616Z,0
2023-04-24T20:42:07.523Z,0
2023-04-24T20:45:07.955Z,0
2023-04-24T20:48:07.893Z,0
2023-04-24T20:51:08.790Z,0
2023-04-24T20:54:07.590Z,0
2023-04-24T20:57:07.564Z,0
2023-04-24T21:00:07.519Z,0
2023-04-24T21:03:08.488Z,0
2023-04-24T21:06:07.549Z,0
2023-04-24T21:09:07.523Z,0
2023-04-24T21:12:07.623Z,0
2023-04-24T21:15:07.588Z,0
2023-04-24T21:18:07.969Z,0
2023-04-24T21:21:07.557Z,0
2023-04-24T21:24:07.578Z,0
2023-04-24T21:27:07.785Z,0
2023-04-24T21:30:07.550Z,0
2023-04-24T21:33:08.986Z,0
2023-04-24T21:36:07.577Z,0
2023-04-24T21:39:07.593Z,0
2023-04-24T21:42:07.523Z,0
2023-04-24T21:45:07.664Z,0
2023-04-24T21:48:07.799Z,0
2023-04-24T21:51:07.576Z,0
2023-04-24T21:54:07.587Z,0
2023-04-24T21:57:07.575Z,0
2023-04-24T22:00:08.403Z,0
2023-04-24T22:03:08.265Z,0
2023-04-24T22:06:07.570Z,0
2023-04-24T22:09:07.550Z,0
2023-04-24T22:12:07.537Z,0
2023-04-24T22:15:07.596Z,0
2023-04-24T22:18:08.072Z,0
2023-04-24T22:21:07.566Z,0
2023-04-24T22:24:07.500Z,0
2023-04-24T22:27:07.607Z,0
2023-04-24T22:30:07.694Z,0
2023-04-24T22:33:07.788Z,0
2023-04-24T22:36:07.501Z,0
2023-04-24T22:39:07.639Z,0
2023-04-24T22:42:07.589Z,0
2023-04-24T22:45:07.567Z,0
2023-04-24T22:48:07.760Z,0
2023-04-24T22:51:07.591Z,0
2023-04-24T22:54:07.523Z,0
2023-04-24T22:57:07.557Z,0
2023-04-24T23:00:07.514Z,0
2023-04-24T23:03:08.448Z,0
2023-04-24T23:06:07.564Z,0
2023-04-24T23:09:07.673Z,0
2023-04-24T23:12:07.565Z,0
2023-04-24T23:15:07.586Z,0
2023-04-24T23:18:07.775Z,0
2023-04-24T23:21:07.529Z,0
2023-04-24T23:24:07.546Z,0
2023-04-24T23:27:07.527Z,0
2023-04-24T23:30:07.576Z,0
2023-04-24T23:33:07.899Z,0
2023-04-24T23:36:07.607Z,0
2023-04-24T23:39:07.549Z,0
2023-04-24T23:42:07.558Z,0
2023-04-24T23:45:07.562Z,0
2023-04-24T23:48:08.119Z,0
2023-04-24T23:51:07.585Z,0
2023-04-24T23:54:07.540Z,0
2023-04-24T23:57:07.597Z,0
